createdAt,value
2023-04-16T00:03:38.047Z,1.80
2023-04-16T00:13:41.321Z,1.73
2023-04-16T00:23:45.944Z,2.03
2023-04-16T00:33:49.115Z,1.83
2023-04-16T00:43:54.067Z,1.80
2023-04-16T00:53:58.375Z,2.83
2023-04-16T01:04:03.107Z,1.63
2023-04-16T01:14:06.326Z,1.90
2023-04-16T01:24:10.859Z,2.00
2023-04-16T01:34:14.199Z,1.90
2023-04-16T01:44:18.998Z,4.70
2023-04-16T01:54:22.600Z,4.23
2023-04-16T02:04:27.182Z,3.83
2023-04-16T02:14:30.584Z,4.50
2023-04-16T02:24:35.074Z,5.40
2023-04-16T02:34:43.323Z,4.73
2023-04-16T02:44:48.735Z,2.30
2023-04-16T02:54:51.936Z,7.47
2023-04-16T03:04:56.452Z,2.10
2023-04-16T03:14:59.633Z,2.40
2023-04-16T03:25:04.352Z,3.13
2023-04-16T03:35:08.920Z,2.93
2023-04-16T03:45:15.283Z,1.87
2023-04-16T03:55:19.812Z,2.30
2023-04-16T04:05:24.466Z,2.60
2023-04-16T04:15:28.776Z,2.40
2023-04-16T04:25:33.442Z,3.13
2023-04-16T04:35:36.909Z,2.73
2023-04-16T04:45:41.866Z,2.20
2023-04-16T04:55:45.561Z,2.50
2023-04-16T05:05:50.242Z,3.87
2023-04-16T05:15:53.477Z,2.80
2023-04-16T05:25:58.089Z,3.73
2023-04-16T05:36:01.253Z,3.30
2023-04-16T05:46:06.028Z,4.13
2023-04-16T05:56:09.550Z,3.30
2023-04-16T06:06:14.100Z,3.57
2023-04-16T06:16:17.292Z,3.50
2023-04-16T06:26:21.763Z,3.57
2023-04-16T06:36:24.881Z,3.80
2023-04-16T06:46:29.514Z,3.20
2023-04-16T06:56:33.319Z,3.40
2023-04-16T07:06:37.851Z,3.30
2023-04-16T07:16:41.180Z,3.23
2023-04-16T07:26:45.849Z,3.77
2023-04-16T07:36:48.996Z,3.47
2023-04-16T07:46:53.858Z,3.20
2023-04-16T07:56:57.186Z,3.90
2023-04-16T08:07:01.660Z,4.47
2023-04-16T08:17:04.801Z,3.67
2023-04-16T08:27:18.478Z,3.57
2023-04-16T08:37:22.727Z,3.80
2023-04-16T08:47:30.161Z,3.47
2023-04-16T08:57:40.584Z,3.50
2023-04-16T09:07:45.959Z,3.90
2023-04-16T09:17:49.304Z,3.20
2023-04-16T09:27:53.944Z,4.63
2023-04-16T09:37:58.481Z,4.63
2023-04-16T09:48:06.449Z,5.27
2023-04-16T09:58:09.700Z,3.70
2023-04-16T10:08:15.348Z,3.40
2023-04-16T10:18:19.148Z,3.63
2023-04-16T10:28:24.621Z,3.47
2023-04-16T10:38:28.954Z,4.30
2023-04-16T10:48:46.481Z,3.27
2023-04-16T10:58:54.935Z,3.50
2023-04-16T11:08:59.525Z,3.87
2023-04-16T11:19:02.843Z,3.60
2023-04-16T11:29:15.237Z,3.77
2023-04-16T11:39:18.399Z,3.13
2023-04-16T11:49:29.880Z,3.77
2023-04-16T11:59:33.406Z,5.30
2023-04-16T12:09:40.800Z,3.67
2023-04-16T12:19:50.786Z,4.73
2023-04-16T12:30:06.595Z,4.37
2023-04-16T12:40:10.844Z,4.87
2023-04-16T12:50:15.696Z,4.87
2023-04-16T13:00:20.804Z,4.90
2023-04-16T13:10:25.412Z,4.47
2023-04-16T13:20:28.617Z,5.67
2023-04-16T13:30:33.581Z,4.27
2023-04-16T13:40:36.729Z,4.57
2023-04-16T13:50:41.394Z,4.77
2023-04-16T14:00:44.665Z,4.37
2023-04-16T14:10:49.190Z,4.87
2023-04-16T14:20:52.392Z,4.50
2023-04-16T14:30:56.923Z,5.07
2023-04-16T14:41:00.578Z,5.10
2023-04-16T14:51:05.514Z,4.87
2023-04-16T15:01:08.896Z,5.03
2023-04-16T15:11:13.540Z,4.93
2023-04-16T15:21:17.213Z,5.10
2023-04-16T15:31:21.932Z,5.20
2023-04-16T15:41:25.657Z,4.93
2023-04-16T15:51:31.644Z,5.57
2023-04-16T16:01:35.085Z,5.67
2023-04-16T16:11:43.493Z,5.77
2023-04-16T16:21:46.641Z,6.40
2023-04-16T16:31:51.121Z,6.23
2023-04-16T16:41:54.379Z,5.53
2023-04-16T16:51:58.977Z,6.60
2023-04-16T17:02:02.149Z,6.27
2023-04-16T17:12:07.547Z,6.77
2023-04-16T17:22:10.731Z,6.93
2023-04-16T17:32:15.497Z,8.53
2023-04-16T17:42:18.800Z,8.50
2023-04-16T17:52:23.734Z,7.97
2023-04-16T18:02:27.192Z,8.40
2023-04-16T18:12:31.893Z,8.03
2023-04-16T18:22:35.034Z,7.60
2023-04-16T18:32:49.463Z,7.93
2023-04-16T18:43:02.948Z,7.30
2023-04-16T18:53:07.785Z,7.90
2023-04-16T19:03:11.025Z,9.20
2023-04-16T19:13:15.638Z,9.03
2023-04-16T19:23:19.213Z,9.50
2023-04-16T19:33:23.863Z,8.97
2023-04-16T19:43:30.645Z,9.97
2023-04-16T19:53:35.939Z,10.17
2023-04-16T20:03:39.280Z,12.10
2023-04-16T20:13:43.761Z,11.83
2023-04-16T20:23:46.950Z,10.97
2023-04-16T20:33:51.523Z,12.13
2023-04-16T20:43:54.695Z,12.87
2023-04-16T20:53:59.242Z,13.93
2023-04-16T21:04:03.097Z,14.30
2023-04-16T21:14:07.892Z,15.20
2023-04-16T21:24:11.235Z,15.20
2023-04-16T21:34:15.808Z,14.70
2023-04-16T21:44:19.050Z,16.73
2023-04-16T21:54:23.542Z,17.17
2023-04-16T22:04:37.037Z,17.37
2023-04-16T22:14:52.173Z,18.50
2023-04-16T22:25:05.413Z,16.70
2023-04-16T22:35:10.841Z,19.63
2023-04-16T22:45:14.034Z,17.67
2023-04-16T22:55:18.685Z,15.20
2023-04-16T23:05:21.949Z,14.83
2023-04-16T23:15:26.579Z,14.27
2023-04-16T23:25:29.780Z,12.87
2023-04-16T23:35:34.375Z,13.17
2023-04-16T23:45:37.578Z,13.37
2023-04-16T23:55:42.154Z,14.23
